Time;durP1;ratioP1;P1;durP2;ratioP2;P2;SDS_P1;SDS_P2;PMS_P1;PMS_P2;Temp;Humidity;BMP_temperature;BMP_pressure;BME280_temperature;BME280_humidity;BME280_pressure;Samples;Min_cycle;Max_cycle;Signal;HPM_P1;HPM_P2
2020/12/06 00:01:36;;;;;;;16.00;8.80;;;4.90;99.90;;;;;;4954017;28;20451;-72
2020/12/06 00:04:04;;;;;;;16.57;9.40;;;5.00;99.90;;;;;;4952391;28;20703;-72
2020/12/06 00:06:30;;;;;;;15.60;9.13;;;4.90;99.90;;;;;;4956377;28;20442;-73
2020/12/06 00:08:56;;;;;;;20.30;10.10;;;5.00;99.90;;;;;;4989278;28;20536;-72
2020/12/06 00:11:22;;;;;;;18.37;8.70;;;5.00;99.90;;;;;;4972474;28;20215;-72
2020/12/06 00:13:47;;;;;;;15.83;9.67;;;5.00;99.90;;;;;;4973244;28;20233;-72
2020/12/06 00:16:19;;;;;;;17.40;10.00;;;5.00;99.90;;;;;;4960864;28;20355;-73
2020/12/06 00:18:47;;;;;;;18.43;10.87;;;5.00;99.90;;;;;;4973675;28;20751;-73
2020/12/06 00:21:17;;;;;;;20.73;9.50;;;5.00;99.90;;;;;;4957202;28;20454;-72
2020/12/06 00:23:44;;;;;;;16.17;9.27;;;5.00;99.90;;;;;;4990593;28;20469;-73
2020/12/06 00:26:11;;;;;;;17.90;8.53;;;5.00;99.90;;;;;;4962899;28;20490;-71
2020/12/06 00:28:46;;;;;;;14.00;9.57;;;5.00;99.90;;;;;;4971689;28;20541;-72
2020/12/06 00:31:12;;;;;;;15.73;9.77;;;5.00;99.90;;;;;;4981665;28;20485;-72
2020/12/06 00:33:38;;;;;;;15.93;9.57;;;5.00;99.90;;;;;;4980311;28;20901;-72
2020/12/06 00:36:03;;;;;;;17.97;9.50;;;5.00;99.90;;;;;;4958088;28;20280;-73
2020/12/06 00:38:29;;;;;;;13.07;8.93;;;5.00;99.90;;;;;;4989700;28;20472;-73
2020/12/06 00:40:55;;;;;;;18.83;9.87;;;5.00;99.90;;;;;;4972644;28;20234;-72
2020/12/06 00:43:20;;;;;;;15.50;8.80;;;5.00;99.90;;;;;;4981660;28;20308;-72
2020/12/06 00:45:46;;;;;;;12.60;8.37;;;5.00;99.90;;;;;;4957056;28;20703;-73
2020/12/06 00:48:12;;;;;;;16.67;9.40;;;5.00;99.90;;;;;;4957598;28;20246;-73
2020/12/06 00:50:37;;;;;;;16.00;8.73;;;5.00;99.90;;;;;;4956895;28;20246;-73
2020/12/06 00:53:04;;;;;;;19.50;9.33;;;5.00;99.90;;;;;;4952919;28;20221;-72
2020/12/06 00:55:30;;;;;;;21.60;10.57;;;5.00;99.90;;;;;;4965392;28;20508;-72
2020/12/06 00:57:57;;;;;;;22.37;10.53;;;5.00;99.90;;;;;;4956046;28;20457;-73
2020/12/06 01:00:22;;;;;;;18.87;10.10;;;5.00;99.90;;;;;;4956597;28;20509;-73
2020/12/06 01:02:48;;;;;;;19.77;9.07;;;5.00;99.90;;;;;;4956506;28;20230;-72
2020/12/06 01:05:14;;;;;;;16.30;8.77;;;5.00;99.90;;;;;;4953558;28;20231;-72
2020/12/06 01:07:41;;;;;;;14.17;8.33;;;5.00;99.90;;;;;;4972899;28;20238;-72
2020/12/06 01:10:09;;;;;;;20.40;9.60;;;5.00;99.90;;;;;;4956166;28;20265;-73
2020/12/06 01:12:35;;;;;;;18.43;10.60;;;5.00;99.90;;;;;;4979648;28;20504;-73
2020/12/06 01:15:03;;;;;;;19.10;9.73;;;5.00;99.90;;;;;;4957487;28;21052;-72
2020/12/06 01:17:28;;;;;;;18.10;9.47;;;5.00;99.90;;;;;;4962383;28;20462;-73
2020/12/06 01:19:54;;;;;;;21.13;10.47;;;5.00;99.90;;;;;;4967946;28;20469;-73
2020/12/06 01:22:20;;;;;;;14.67;8.47;;;5.00;99.90;;;;;;4957459;28;20230;-73
2020/12/06 01:24:45;;;;;;;16.60;9.33;;;5.00;99.90;;;;;;4956226;28;20324;-73
2020/12/06 01:27:11;;;;;;;20.43;9.43;;;5.00;99.90;;;;;;4940805;28;20226;-73
2020/12/06 01:29:36;;;;;;;15.77;8.80;;;5.00;99.90;;;;;;4972745;28;20225;-72
2020/12/06 01:32:02;;;;;;;16.23;8.50;;;5.00;99.90;;;;;;4955892;28;20309;-73
2020/12/06 01:34:28;;;;;;;19.00;9.20;;;5.00;99.90;;;;;;4941834;28;20277;-72
2020/12/06 01:36:54;;;;;;;15.60;8.57;;;5.10;99.90;;;;;;4956574;28;20215;-71
2020/12/06 01:39:20;;;;;;;17.37;9.03;;;5.00;99.90;;;;;;4959494;28;20234;-71
2020/12/06 01:41:45;;;;;;;19.03;8.00;;;5.00;99.90;;;;;;4960986;28;20246;-70
2020/12/06 01:44:12;;;;;;;16.03;8.70;;;4.90;99.90;;;;;;4963282;28;20493;-70
2020/12/06 01:46:38;;;;;;;15.30;8.90;;;4.90;99.90;;;;;;4977174;28;20306;-70
2020/12/06 01:49:05;;;;;;;13.23;7.80;;;4.90;99.90;;;;;;4940048;28;20457;-70
2020/12/06 01:51:33;;;;;;;14.97;6.80;;;5.00;99.90;;;;;;4972804;28;20979;-70
2020/12/06 01:53:59;;;;;;;12.00;6.60;;;5.00;99.90;;;;;;4972152;28;20458;-70
2020/12/06 01:56:25;;;;;;;18.10;8.90;;;5.00;99.90;;;;;;4955765;28;20454;-70
2020/12/06 01:58:50;;;;;;;15.97;8.10;;;5.00;99.90;;;;;;4955408;28;20235;-71
2020/12/06 02:01:16;;;;;;;17.73;8.37;;;5.00;99.90;;;;;;4956749;28;20215;-70
2020/12/06 02:03:42;;;;;;;16.70;8.30;;;5.00;99.90;;;;;;4972575;28;20286;-70
2020/12/06 02:06:08;;;;;;;12.60;7.63;;;5.00;99.90;;;;;;4946014;28;20218;-70
2020/12/06 02:08:34;;;;;;;12.57;7.80;;;5.10;99.90;;;;;;4959336;28;20474;-70
2020/12/06 02:11:01;;;;;;;14.70;7.70;;;5.10;99.90;;;;;;4970579;28;20288;-70
2020/12/06 02:13:26;;;;;;;16.77;8.43;;;5.10;99.90;;;;;;4955934;28;20458;-70
2020/12/06 02:15:54;;;;;;;13.73;7.93;;;5.10;99.90;;;;;;4955661;28;20464;-71
2020/12/06 02:18:21;;;;;;;13.47;8.20;;;5.10;99.90;;;;;;4972667;28;20226;-70
2020/12/06 02:20:48;;;;;;;14.63;8.40;;;5.00;99.90;;;;;;4971489;28;20457;-70
2020/12/06 02:23:13;;;;;;;12.17;7.10;;;5.10;99.90;;;;;;4975859;28;20464;-70
2020/12/06 02:25:40;;;;;;;12.70;6.90;;;5.10;99.90;;;;;;4976195;28;20893;-70
2020/12/06 02:28:07;;;;;;;13.60;8.37;;;5.10;99.90;;;;;;4980500;28;20234;-71
2020/12/06 02:30:34;;;;;;;17.70;9.13;;;5.10;99.90;;;;;;4975919;28;20466;-70
2020/12/06 02:33:01;;;;;;;12.27;7.50;;;5.10;99.90;;;;;;4959727;28;20454;-70
2020/12/06 02:35:26;;;;;;;16.90;9.00;;;5.10;99.90;;;;;;4975398;28;20454;-70
2020/12/06 02:37:52;;;;;;;15.77;8.47;;;5.10;99.90;;;;;;4955904;28;20473;-71
2020/12/06 02:40:18;;;;;;;16.33;8.97;;;5.10;99.90;;;;;;4973934;28;20222;-70
2020/12/06 02:42:44;;;;;;;20.20;9.57;;;5.10;99.90;;;;;;4964101;28;20223;-71
2020/12/06 02:45:09;;;;;;;15.87;7.93;;;5.10;99.90;;;;;;4958505;28;20690;-70
2020/12/06 02:47:35;;;;;;;19.67;8.57;;;5.10;99.90;;;;;;4959367;28;20261;-70
2020/12/06 02:50:01;;;;;;;14.93;7.50;;;5.10;99.90;;;;;;4958384;28;20679;-70
2020/12/06 02:52:27;;;;;;;16.30;8.33;;;5.10;99.90;;;;;;4975479;28;20229;-70
2020/12/06 02:54:53;;;;;;;18.80;8.40;;;5.10;99.90;;;;;;4974346;28;20226;-70
2020/12/06 02:57:18;;;;;;;13.00;7.60;;;5.10;99.90;;;;;;4975078;28;20222;-71
2020/12/06 02:59:44;;;;;;;19.20;7.73;;;5.00;99.90;;;;;;4973773;28;20230;-70
2020/12/06 03:02:09;;;;;;;10.77;7.33;;;5.00;99.90;;;;;;4975329;28;20226;-70
2020/12/06 03:04:35;;;;;;;18.57;8.00;;;5.10;99.90;;;;;;4958220;28;20235;-70
2020/12/06 03:07:01;;;;;;;16.37;7.87;;;5.10;99.90;;;;;;4958322;28;20230;-71
2020/12/06 03:09:27;;;;;;;13.40;8.57;;;5.10;99.90;;;;;;4991447;28;20229;-70
2020/12/06 03:11:52;;;;;;;16.77;7.87;;;5.10;99.90;;;;;;4974569;28;20210;-71
2020/12/06 03:14:18;;;;;;;14.23;8.20;;;5.00;99.90;;;;;;4958962;28;20376;-70
2020/12/06 03:16:44;;;;;;;17.30;8.33;;;5.10;99.90;;;;;;4998754;28;20211;-70
2020/12/06 03:19:09;;;;;;;15.90;9.33;;;5.00;99.90;;;;;;4975220;28;20299;-70
2020/12/06 03:21:35;;;;;;;13.03;7.60;;;5.00;99.90;;;;;;4974712;28;20310;-71
2020/12/06 03:24:01;;;;;;;18.07;8.27;;;5.00;99.90;;;;;;4955057;28;20703;-70
2020/12/06 03:26:26;;;;;;;13.40;7.43;;;5.00;99.90;;;;;;4963982;28;20229;-70
2020/12/06 03:28:52;;;;;;;12.57;7.43;;;5.00;99.90;;;;;;4955846;28;20572;-71
2020/12/06 03:31:18;;;;;;;14.13;7.63;;;5.00;99.90;;;;;;4960907;28;20310;-71
2020/12/06 03:33:43;;;;;;;10.97;7.23;;;5.00;99.90;;;;;;4966869;28;20249;-71
2020/12/06 03:36:09;;;;;;;14.47;7.60;;;5.00;99.90;;;;;;4959839;28;20225;-70
2020/12/06 03:38:35;;;;;;;12.90;7.43;;;5.00;99.90;;;;;;4975306;28;20585;-70
2020/12/06 03:41:01;;;;;;;13.40;8.07;;;5.00;99.90;;;;;;4958051;28;20220;-70
2020/12/06 03:43:26;;;;;;;12.60;8.33;;;5.00;99.90;;;;;;4976478;28;20261;-70
2020/12/06 03:45:52;;;;;;;14.70;7.80;;;5.00;99.90;;;;;;5000594;28;20277;-71
2020/12/06 03:48:18;;;;;;;10.23;6.50;;;5.00;99.90;;;;;;4958033;28;20230;-70
2020/12/06 03:50:43;;;;;;;14.50;7.00;;;5.00;99.90;;;;;;4973558;28;20707;-70
2020/12/06 03:53:09;;;;;;;14.13;7.00;;;5.00;99.90;;;;;;4958088;28;20240;-70
2020/12/06 03:55:35;;;;;;;11.70;6.67;;;4.90;99.90;;;;;;4958268;28;20288;-70
2020/12/06 03:58:00;;;;;;;11.13;6.90;;;4.90;99.90;;;;;;4956973;28;20219;-70
2020/12/06 04:00:26;;;;;;;13.20;7.97;;;4.90;99.90;;;;;;4973049;28;20227;-70
2020/12/06 04:02:52;;;;;;;12.20;7.30;;;4.90;99.90;;;;;;4956213;28;20219;-70
2020/12/06 04:05:21;;;;;;;14.23;6.80;;;4.90;99.90;;;;;;4957769;28;20770;-70
2020/12/06 04:07:49;;;;;;;14.43;7.10;;;4.90;99.90;;;;;;4957317;28;20252;-71
2020/12/06 04:10:14;;;;;;;12.20;7.60;;;4.90;99.90;;;;;;4953783;28;20454;-71
2020/12/06 04:12:40;;;;;;;17.63;8.47;;;4.90;99.90;;;;;;4984875;28;20528;-71
2020/12/06 04:15:06;;;;;;;14.07;7.20;;;4.90;99.90;;;;;;4958336;28;20684;-70
2020/12/06 04:17:32;;;;;;;14.50;7.50;;;4.90;99.90;;;;;;4962291;28;20675;-70
2020/12/06 04:19:57;;;;;;;14.27;7.40;;;4.90;99.90;;;;;;4972622;28;20305;-70
2020/12/06 04:22:23;;;;;;;11.83;7.17;;;4.90;99.90;;;;;;4957682;28;20222;-70
2020/12/06 04:24:49;;;;;;;9.70;6.30;;;4.90;99.90;;;;;;4972975;28;20234;-70
2020/12/06 04:27:14;;;;;;;16.13;7.97;;;4.90;99.90;;;;;;4951982;28;20246;-70
2020/12/06 04:29:41;;;;;;;15.00;6.60;;;4.90;99.90;;;;;;4966505;28;20317;-71
2020/12/06 04:32:07;;;;;;;13.40;7.00;;;4.90;99.90;;;;;;4968916;28;20545;-71
2020/12/06 04:34:36;;;;;;;12.17;6.43;;;4.90;99.90;;;;;;4957707;28;20226;-71
2020/12/06 04:37:03;;;;;;;10.23;6.83;;;4.90;99.90;;;;;;4956137;28;20237;-70
2020/12/06 04:39:29;;;;;;;14.67;8.10;;;4.90;99.90;;;;;;4977526;28;21169;-70
2020/12/06 04:41:55;;;;;;;13.80;7.70;;;4.90;99.90;;;;;;4969494;28;20481;-72
2020/12/06 04:44:21;;;;;;;13.67;7.40;;;4.90;99.90;;;;;;4956324;28;20310;-71
2020/12/06 04:46:46;;;;;;;10.77;6.77;;;4.90;99.90;;;;;;5004666;28;20698;-70
2020/12/06 04:49:29;;;;;;;12.13;7.43;;;4.90;99.90;;;;;;4956683;28;20313;-70
2020/12/06 04:51:57;;;;;;;11.10;5.97;;;4.90;99.90;;;;;;4953860;28;20215;-71
2020/12/06 04:54:36;;;;;;;10.80;5.50;;;4.90;99.90;;;;;;4973128;28;20599;-70
2020/12/06 04:57:04;;;;;;;10.27;6.20;;;4.90;99.90;;;;;;4971423;28;20468;-70
2020/12/06 04:59:30;;;;;;;13.73;7.03;;;5.00;99.90;;;;;;4972316;28;20454;-70
2020/12/06 05:02:03;;;;;;;11.87;6.60;;;5.00;99.90;;;;;;4955127;28;20504;-72
2020/12/06 05:04:33;;;;;;;13.47;7.30;;;5.00;99.90;;;;;;4960200;28;20246;-70
2020/12/06 05:07:01;;;;;;;12.33;5.93;;;5.00;99.90;;;;;;4956170;28;20954;-70
2020/12/06 05:09:32;;;;;;;15.27;7.37;;;5.00;99.90;;;;;;4972698;28;20450;-70
2020/12/06 05:11:58;;;;;;;13.50;7.53;;;5.00;99.90;;;;;;4955829;28;20473;-70
2020/12/06 05:14:23;;;;;;;11.80;6.60;;;5.00;99.90;;;;;;4972383;28;20480;-70
2020/12/06 05:16:50;;;;;;;11.93;6.53;;;5.00;99.90;;;;;;4984001;28;20938;-70
2020/12/06 05:19:16;;;;;;;14.70;7.53;;;4.90;99.90;;;;;;4953203;28;20222;-70
2020/12/06 05:21:44;;;;;;;10.43;5.53;;;4.90;99.90;;;;;;4952730;28;20453;-72
2020/12/06 05:24:09;;;;;;;10.03;6.47;;;5.00;99.90;;;;;;4953096;28;20223;-70
2020/12/06 05:26:35;;;;;;;8.30;5.67;;;5.00;99.90;;;;;;4967993;28;20454;-71
2020/12/06 05:29:03;;;;;;;11.20;6.00;;;5.00;99.90;;;;;;4973176;28;20223;-71
2020/12/06 05:31:29;;;;;;;11.33;6.80;;;5.00;99.90;;;;;;4973979;28;20525;-70
2020/12/06 05:34:32;;;;;;;8.73;5.77;;;5.00;99.90;;;;;;4954233;28;20954;-71
2020/12/06 05:37:04;;;;;;;9.37;5.70;;;5.00;99.90;;;;;;4971434;28;20691;-70
2020/12/06 05:39:30;;;;;;;10.60;5.47;;;5.00;99.90;;;;;;4989503;28;20595;-71
2020/12/06 05:41:58;;;;;;;12.10;6.60;;;5.00;99.90;;;;;;4954409;28;20540;-70
2020/12/06 05:44:24;;;;;;;10.57;6.00;;;5.00;99.90;;;;;;4963546;28;20214;-70
2020/12/06 05:46:50;;;;;;;15.93;5.50;;;5.00;99.90;;;;;;4977220;28;21028;-71
2020/12/06 05:49:19;;;;;;;13.10;6.00;;;5.00;99.90;;;;;;4971670;28;20230;-70
2020/12/06 05:51:55;;;;;;;14.43;5.93;;;5.00;99.90;;;;;;4971631;28;20223;-70
2020/12/06 05:54:24;;;;;;;12.83;5.87;;;5.00;99.90;;;;;;4972318;28;20457;-71
2020/12/06 05:56:53;;;;;;;13.17;6.17;;;5.00;99.90;;;;;;4974535;28;20457;-70
2020/12/06 05:59:20;;;;;;;9.87;5.30;;;5.10;99.90;;;;;;4976966;28;20970;-70
2020/12/06 06:01:48;;;;;;;9.73;4.93;;;5.10;99.90;;;;;;4958722;28;20520;-70
2020/12/06 06:04:19;;;;;;;10.10;5.57;;;5.10;99.90;;;;;;4963890;28;20467;-70
2020/12/06 06:06:47;;;;;;;12.93;6.67;;;5.10;99.90;;;;;;4978157;28;20453;-71
2020/12/06 06:09:15;;;;;;;9.13;5.10;;;5.00;99.90;;;;;;4975805;28;20461;-70
2020/12/06 06:12:05;;;;;;;10.87;6.23;;;5.10;99.90;;;;;;4959151;28;21018;-70
2020/12/06 06:14:31;;;;;;;14.20;6.27;;;5.10;99.90;;;;;;5003167;28;20969;-71
2020/12/06 06:16:58;;;;;;;9.93;5.33;;;5.10;99.90;;;;;;4963129;28;20450;-70
2020/12/06 06:19:24;;;;;;;7.63;4.57;;;5.00;99.90;;;;;;4976065;28;20465;-70
2020/12/06 06:21:51;;;;;;;8.80;5.10;;;5.00;99.90;;;;;;4974552;28;20473;-71
2020/12/06 06:24:25;;;;;;;11.00;5.83;;;5.00;99.90;;;;;;4958634;28;20891;-71
2020/12/06 06:26:52;;;;;;;11.70;6.07;;;5.10;99.90;;;;;;4974215;28;20454;-70
2020/12/06 06:29:20;;;;;;;9.80;5.07;;;5.10;99.90;;;;;;4996328;28;20519;-71
2020/12/06 06:31:49;;;;;;;12.37;6.10;;;5.10;99.90;;;;;;4961830;28;20447;-71
2020/12/06 06:34:15;;;;;;;12.17;4.80;;;5.10;99.90;;;;;;4974731;28;20454;-71
2020/12/06 06:36:44;;;;;;;11.20;5.80;;;5.10;99.90;;;;;;4958691;28;20461;-71
2020/12/06 06:39:21;;;;;;;6.80;4.97;;;5.10;99.90;;;;;;4958427;28;20457;-71
2020/12/06 06:42:11;;;;;;;13.00;5.80;;;5.00;99.90;;;;;;4976893;28;20517;-71
2020/12/06 06:44:42;;;;;;;11.50;5.40;;;5.00;99.90;;;;;;4965985;28;20493;-71
2020/12/06 06:47:10;;;;;;;9.20;5.93;;;5.00;99.90;;;;;;4955560;28;20580;-71
2020/12/06 06:49:55;;;;;;;10.83;6.00;;;5.00;99.90;;;;;;4958878;28;20454;-71
2020/12/06 06:52:23;;;;;;;11.73;6.00;;;5.00;99.90;;;;;;4991235;28;20950;-72
2020/12/06 06:54:51;;;;;;;8.80;5.53;;;5.00;99.90;;;;;;4961020;28;20936;-71
2020/12/06 06:57:19;;;;;;;11.30;5.43;;;5.10;99.90;;;;;;4958650;28;20831;-71
2020/12/06 06:59:51;;;;;;;11.27;5.83;;;5.10;99.90;;;;;;4973494;28;20462;-71
2020/12/06 07:02:20;;;;;;;8.27;4.80;;;5.00;99.90;;;;;;4951980;28;20928;-71
2020/12/06 07:04:47;;;;;;;11.83;5.47;;;5.00;99.90;;;;;;4973877;28;20476;-71
2020/12/06 07:07:15;;;;;;;10.63;5.07;;;5.00;99.90;;;;;;4960749;28;20975;-71
2020/12/06 07:09:41;;;;;;;9.87;4.90;;;5.10;99.90;;;;;;4972003;28;20966;-71
2020/12/06 07:12:08;;;;;;;7.57;4.80;;;5.00;99.90;;;;;;4959763;28;20442;-73
2020/12/06 07:14:34;;;;;;;11.03;5.10;;;5.00;99.90;;;;;;4991712;28;21114;-73
2020/12/06 07:16:59;;;;;;;10.50;5.70;;;5.00;99.90;;;;;;4964554;28;20468;-73
2020/12/06 07:19:25;;;;;;;10.27;5.30;;;5.10;99.90;;;;;;4958882;28;20636;-73
2020/12/06 07:21:51;;;;;;;10.43;4.47;;;5.10;99.90;;;;;;4965373;28;20626;-73
2020/12/06 07:24:18;;;;;;;8.40;4.77;;;5.10;99.90;;;;;;4955186;28;20822;-74
2020/12/06 07:26:45;;;;;;;9.30;5.33;;;5.10;99.90;;;;;;4975762;28;20458;-73
2020/12/06 07:29:11;;;;;;;10.80;6.80;;;5.10;99.90;;;;;;4959751;28;20462;-73
2020/12/06 07:31:37;;;;;;;10.57;6.33;;;5.10;99.90;;;;;;4961911;28;20447;-71
2020/12/06 07:34:06;;;;;;;10.10;6.27;;;5.20;99.90;;;;;;4971662;28;20443;-70
2020/12/06 07:36:35;;;;;;;9.70;6.10;;;5.20;99.90;;;;;;4957767;28;20222;-70
2020/12/06 07:39:21;;;;;;;14.30;7.80;;;5.20;99.90;;;;;;4972979;28;20449;-71
2020/12/06 07:41:48;;;;;;;12.37;6.13;;;5.20;99.90;;;;;;4956262;28;20979;-71
2020/12/06 07:44:14;;;;;;;12.70;8.00;;;5.20;99.90;;;;;;4973539;28;20450;-70
2020/12/06 07:46:40;;;;;;;14.87;8.03;;;5.20;99.90;;;;;;4972754;28;21065;-72
2020/12/06 07:49:07;;;;;;;14.47;9.23;;;5.20;99.90;;;;;;4940813;28;20499;-73
2020/12/06 07:51:33;;;;;;;19.57;9.30;;;5.20;99.90;;;;;;4973344;28;20446;-73
2020/12/06 07:54:01;;;;;;;13.80;8.20;;;5.20;99.90;;;;;;4972759;28;20496;-73
2020/12/06 07:56:29;;;;;;;19.67;10.00;;;5.20;99.90;;;;;;4973950;28;20230;-74
2020/12/06 07:59:23;;;;;;;22.30;12.60;;;5.30;99.90;;;;;;4959146;28;20462;-71
2020/12/06 08:01:50;;;;;;;14.27;8.70;;;5.30;99.90;;;;;;4971089;28;20462;-73
2020/12/06 08:04:26;;;;;;;16.93;9.10;;;5.30;99.90;;;;;;4967674;28;20475;-73
2020/12/06 08:06:59;;;;;;;14.90;7.10;;;5.30;99.90;;;;;;4972966;28;20507;-74
2020/12/06 08:09:28;;;;;;;15.93;8.00;;;5.30;99.90;;;;;;4974055;28;20828;-73
2020/12/06 08:11:59;;;;;;;16.30;8.87;;;5.30;99.90;;;;;;4977318;28;20462;-73
2020/12/06 08:14:25;;;;;;;14.13;8.50;;;5.20;99.90;;;;;;4966398;28;20461;-73
2020/12/06 08:16:55;;;;;;;16.10;8.97;;;5.30;99.90;;;;;;4955992;28;20536;-73
2020/12/06 08:19:23;;;;;;;13.30;8.00;;;5.30;99.90;;;;;;4988102;28;20219;-74
2020/12/06 08:21:50;;;;;;;17.13;9.20;;;5.30;99.90;;;;;;4988543;28;20457;-72
2020/12/06 08:24:25;;;;;;;13.37;8.20;;;5.30;99.90;;;;;;4945476;28;20509;-73
2020/12/06 08:26:52;;;;;;;19.43;11.10;;;5.30;99.90;;;;;;4969890;28;20462;-73
2020/12/06 08:29:18;;;;;;;22.80;12.27;;;5.30;99.90;;;;;;4970558;28;20482;-73
2020/12/06 08:31:45;;;;;;;20.00;10.47;;;5.30;99.90;;;;;;4967914;28;20454;-73
2020/12/06 08:34:16;;;;;;;16.87;9.27;;;5.30;99.90;;;;;;4957309;28;20453;-73
2020/12/06 08:36:42;;;;;;;11.90;7.07;;;5.30;99.90;;;;;;4972718;28;20458;-74
2020/12/06 08:39:19;;;;;;;12.70;7.40;;;5.30;99.90;;;;;;4972537;28;20458;-73
2020/12/06 08:41:45;;;;;;;10.53;6.87;;;5.30;99.90;;;;;;4968829;28;20435;-73
2020/12/06 08:44:16;;;;;;;10.80;6.87;;;5.30;99.90;;;;;;4952829;28;20501;-74
2020/12/06 08:46:52;;;;;;;13.70;6.67;;;5.30;99.90;;;;;;4983901;28;20500;-73
2020/12/06 08:49:21;;;;;;;9.60;6.10;;;5.30;99.90;;;;;;4973022;28;20469;-73
2020/12/06 08:51:52;;;;;;;13.03;6.67;;;5.30;99.90;;;;;;4955999;28;20528;-73
2020/12/06 08:54:34;;;;;;;11.87;7.10;;;5.40;99.90;;;;;;4957283;28;20465;-73
2020/12/06 08:57:10;;;;;;;12.80;6.60;;;5.30;99.90;;;;;;4956999;28;20484;-74
2020/12/06 08:59:40;;;;;;;10.07;6.23;;;5.30;99.90;;;;;;4979536;28;20541;-73
2020/12/06 09:02:06;;;;;;;11.03;6.73;;;5.30;99.90;;;;;;4971598;28;20508;-73
2020/12/06 09:04:33;;;;;;;11.50;5.67;;;5.40;99.90;;;;;;4953647;28;20450;-73
2020/12/06 09:07:00;;;;;;;11.63;6.70;;;5.40;99.90;;;;;;4990691;28;20481;-71
2020/12/06 09:09:26;;;;;;;12.80;8.27;;;5.40;99.90;;;;;;4956742;28;20557;-72
2020/12/06 09:11:53;;;;;;;8.27;6.60;;;5.40;99.90;;;;;;4967192;28;20535;-73
2020/12/06 09:14:19;;;;;;;11.83;6.70;;;5.40;99.90;;;;;;4972897;28;20229;-73
2020/12/06 09:16:44;;;;;;;11.17;6.40;;;5.40;99.90;;;;;;4983345;28;20448;-73
2020/12/06 09:19:10;;;;;;;11.17;6.17;;;5.40;99.90;;;;;;4975761;28;20480;-73
2020/12/06 09:21:36;;;;;;;8.10;5.07;;;5.40;99.90;;;;;;4975475;28;20222;-73
2020/12/06 09:24:02;;;;;;;12.17;7.03;;;5.40;99.90;;;;;;4975725;28;20460;-74
2020/12/06 09:26:28;;;;;;;9.30;5.77;;;5.50;99.90;;;;;;4976405;28;20245;-74
2020/12/06 09:28:53;;;;;;;10.00;6.27;;;5.50;99.90;;;;;;4976325;28;20547;-73
2020/12/06 09:31:23;;;;;;;12.00;6.67;;;5.50;99.90;;;;;;4982943;28;20226;-73
2020/12/06 09:33:50;;;;;;;14.40;6.13;;;5.50;99.90;;;;;;4985293;28;20225;-74
2020/12/06 09:36:16;;;;;;;12.43;6.37;;;5.50;99.90;;;;;;4978664;28;20494;-72
2020/12/06 09:39:28;;;;;;;15.03;6.83;;;5.50;99.90;;;;;;4962844;28;20485;-73
2020/12/06 09:41:54;;;;;;;11.00;6.37;;;5.50;99.90;;;;;;4977630;28;20222;-73
2020/12/06 09:44:19;;;;;;;14.53;7.23;;;5.50;99.90;;;;;;4965434;28;20492;-73
2020/12/06 09:46:45;;;;;;;13.50;7.60;;;5.50;99.90;;;;;;4968860;28;20225;-73
2020/12/06 09:49:11;;;;;;;19.90;10.17;;;5.50;99.90;;;;;;4953809;28;20794;-73
2020/12/06 09:51:36;;;;;;;17.37;10.80;;;5.50;99.90;;;;;;4961833;28;20773;-73
2020/12/06 09:54:02;;;;;;;13.37;8.00;;;5.60;99.90;;;;;;4961852;28;20604;-74
2020/12/06 09:56:29;;;;;;;13.67;7.20;;;5.50;99.90;;;;;;4979281;28;20230;-72
2020/12/06 09:58:55;;;;;;;15.40;7.70;;;5.60;99.90;;;;;;4978163;28;20469;-72
2020/12/06 10:01:22;;;;;;;14.40;8.00;;;5.60;99.90;;;;;;4983664;28;20464;-74
2020/12/06 10:03:47;;;;;;;15.20;7.30;;;5.60;99.90;;;;;;4970431;28;20482;-72
2020/12/06 10:06:13;;;;;;;24.27;14.70;;;5.60;99.90;;;;;;4995563;28;20487;-72
2020/12/06 10:08:39;;;;;;;35.87;18.93;;;5.60;99.90;;;;;;4998462;28;20226;-73
2020/12/06 10:11:04;;;;;;;26.40;15.03;;;5.60;99.90;;;;;;4981450;28;20236;-72
2020/12/06 10:13:30;;;;;;;21.63;12.90;;;5.60;99.90;;;;;;4967052;28;20230;-73
2020/12/06 10:15:55;;;;;;;19.47;11.30;;;5.60;99.90;;;;;;4961725;28;20237;-73
2020/12/06 10:18:21;;;;;;;18.07;10.20;;;5.70;99.90;;;;;;4962799;28;20757;-72
2020/12/06 10:20:47;;;;;;;14.70;8.50;;;5.70;99.90;;;;;;4977353;28;20587;-72
2020/12/06 10:23:12;;;;;;;13.17;7.77;;;5.70;99.90;;;;;;4962441;28;20317;-72
2020/12/06 10:25:38;;;;;;;9.13;5.97;;;5.70;99.90;;;;;;4962401;28;20230;-72
2020/12/06 10:28:04;;;;;;;6.60;4.63;;;5.70;99.90;;;;;;4978460;28;20230;-72
2020/12/06 10:30:30;;;;;;;13.87;6.80;;;5.70;99.90;;;;;;4961803;28;20281;-72
2020/12/06 10:32:55;;;;;;;9.60;5.73;;;5.70;99.90;;;;;;4976864;28;20218;-74
2020/12/06 10:35:21;;;;;;;9.30;5.00;;;5.80;99.90;;;;;;4972316;28;20222;-72
2020/12/06 10:37:47;;;;;;;6.90;5.17;;;5.80;99.90;;;;;;4961497;28;20230;-72
2020/12/06 10:40:12;;;;;;;8.13;5.17;;;5.80;99.90;;;;;;4964239;28;20227;-72
2020/12/06 10:42:38;;;;;;;13.43;7.77;;;5.80;99.90;;;;;;4974405;28;20246;-72
2020/12/06 10:45:04;;;;;;;12.10;7.17;;;5.80;99.90;;;;;;4974545;28;20264;-73
2020/12/06 10:47:30;;;;;;;13.73;7.60;;;5.80;99.90;;;;;;4975766;28;20313;-71
2020/12/06 10:49:55;;;;;;;13.33;7.77;;;5.80;99.90;;;;;;4957727;28;20473;-72
2020/12/06 10:52:21;;;;;;;15.23;8.97;;;5.80;99.90;;;;;;4959448;28;20223;-72
2020/12/06 10:54:47;;;;;;;13.00;9.30;;;5.80;99.90;;;;;;4971859;28;20230;-72
2020/12/06 10:57:13;;;;;;;14.77;8.63;;;5.90;99.90;;;;;;4975637;28;20223;-72
2020/12/06 10:59:38;;;;;;;17.07;10.37;;;5.90;99.90;;;;;;4974444;28;20573;-72
2020/12/06 11:02:04;;;;;;;19.43;10.80;;;5.90;99.90;;;;;;4957858;28;20218;-73
2020/12/06 11:04:31;;;;;;;11.90;8.67;;;5.90;99.90;;;;;;4971206;28;20276;-72
2020/12/06 11:06:57;;;;;;;19.10;13.50;;;5.90;99.90;;;;;;4977792;28;20222;-73
2020/12/06 11:09:24;;;;;;;49.90;27.57;;;5.90;99.90;;;;;;4982167;28;20495;-72
2020/12/06 11:11:50;;;;;;;52.90;28.27;;;5.90;99.90;;;;;;4967125;28;20456;-72
2020/12/06 11:14:17;;;;;;;40.50;24.13;;;5.90;99.90;;;;;;4974105;28;20453;-72
2020/12/06 11:16:42;;;;;;;26.40;16.43;;;5.90;99.90;;;;;;4955293;28;20517;-72
2020/12/06 11:19:08;;;;;;;22.53;14.60;;;5.90;99.90;;;;;;4958963;28;20446;-72
2020/12/06 11:21:34;;;;;;;18.47;11.13;;;5.90;99.90;;;;;;4960436;28;20214;-72
2020/12/06 11:23:59;;;;;;;18.90;10.90;;;5.80;99.90;;;;;;4957686;28;20649;-72
2020/12/06 11:26:25;;;;;;;12.53;9.17;;;5.90;99.90;;;;;;4957974;28;20306;-73
2020/12/06 11:28:51;;;;;;;19.80;8.90;;;5.90;99.90;;;;;;4957281;28;20329;-72
2020/12/06 11:31:16;;;;;;;14.00;8.07;;;5.90;99.90;;;;;;4957124;28;20230;-72
2020/12/06 11:33:43;;;;;;;16.37;8.37;;;5.90;99.90;;;;;;4966012;28;20234;-72
2020/12/06 11:36:09;;;;;;;15.73;8.10;;;6.00;99.90;;;;;;4958045;28;20270;-72
2020/12/06 11:38:35;;;;;;;12.00;6.87;;;6.00;99.90;;;;;;4954723;28;20472;-72
2020/12/06 11:41:01;;;;;;;10.60;6.90;;;6.00;99.90;;;;;;4969486;28;20473;-72
2020/12/06 11:43:39;;;;;;;12.70;6.67;;;6.00;99.90;;;;;;4973953;28;20545;-72
2020/12/06 11:46:05;;;;;;;20.17;9.97;;;6.00;99.90;;;;;;4947939;28;20579;-71
2020/12/06 11:48:31;;;;;;;26.07;13.20;;;6.00;99.90;;;;;;4954695;28;20530;-72
2020/12/06 11:50:56;;;;;;;20.27;12.70;;;6.00;99.90;;;;;;4949432;28;20223;-72
2020/12/06 11:53:22;;;;;;;36.27;18.17;;;6.00;99.90;;;;;;4939303;28;20227;-73
2020/12/06 11:55:48;;;;;;;126.97;53.13;;;6.10;99.90;;;;;;4967517;28;20226;-72
2020/12/06 11:58:13;;;;;;;145.93;54.83;;;6.10;99.90;;;;;;4959812;28;20222;-71
2020/12/06 12:00:39;;;;;;;96.83;40.87;;;6.10;99.90;;;;;;4939893;28;20305;-71
2020/12/06 12:03:05;;;;;;;49.50;24.67;;;6.10;99.90;;;;;;4965108;28;20223;-71
2020/12/06 12:05:30;;;;;;;22.67;12.77;;;6.10;99.90;;;;;;4956383;28;20231;-71
2020/12/06 12:07:56;;;;;;;17.33;10.30;;;6.10;99.90;;;;;;4956804;28;20234;-71
2020/12/06 12:10:22;;;;;;;16.27;9.23;;;6.10;99.90;;;;;;4957571;28;20245;-71
2020/12/06 12:12:47;;;;;;;14.07;7.33;;;6.00;99.90;;;;;;4955289;28;20227;-72
2020/12/06 12:15:13;;;;;;;13.87;6.80;;;6.00;99.90;;;;;;4955632;28;20247;-72
2020/12/06 12:17:45;;;;;;;14.87;7.07;;;6.00;99.90;;;;;;4974577;28;20607;-72
2020/12/06 12:20:11;;;;;;;18.27;10.00;;;6.00;99.90;;;;;;4955513;28;20235;-71
2020/12/06 12:22:37;;;;;;;21.87;11.73;;;6.00;99.90;;;;;;4956927;28;20452;-71
2020/12/06 12:25:04;;;;;;;18.77;9.17;;;6.00;99.90;;;;;;4954326;28;20230;-71
2020/12/06 12:27:29;;;;;;;15.47;8.60;;;6.00;99.90;;;;;;4976732;28;20222;-70
2020/12/06 12:29:55;;;;;;;19.23;11.07;;;6.10;99.90;;;;;;4971778;28;20461;-72
2020/12/06 12:32:21;;;;;;;49.20;24.67;;;6.10;99.90;;;;;;4953054;28;20446;-71
2020/12/06 12:34:47;;;;;;;27.53;16.43;;;6.10;99.90;;;;;;4954279;28;20218;-72
2020/12/06 12:37:16;;;;;;;30.30;17.53;;;6.10;99.90;;;;;;4975491;28;20305;-70
2020/12/06 12:39:43;;;;;;;30.43;16.57;;;6.10;99.90;;;;;;4987047;28;20218;-71
2020/12/06 12:42:08;;;;;;;28.90;15.37;;;6.10;99.90;;;;;;4955704;28;20446;-72
2020/12/06 12:44:34;;;;;;;22.67;11.47;;;6.20;99.90;;;;;;4969268;28;20465;-71
2020/12/06 12:47:00;;;;;;;19.50;10.70;;;6.20;99.90;;;;;;4966314;28;20235;-71